sensor_id;sensor_type;location;lat;lon;timestamp;temperature;humidity
19224;DHT22;9746;47.180;9.776;2023-10-19T08:18:15;12.70;99.90
19224;DHT22;9746;47.180;9.776;2023-10-19T08:20:43;12.90;99.90
19224;DHT22;9746;47.180;9.776;2023-10-19T08:26:47;13.10;99.90
19224;DHT22;9746;47.180;9.776;2023-10-19T08:29:14;13.10;99.90
19224;DHT22;9746;47.180;9.776;2023-10-19T08:31:54;13.20;99.90
19224;DHT22;9746;47.180;9.776;2023-10-19T08:34:24;13.20;99.90
19224;DHT22;9746;47.180;9.776;2023-10-19T08:37:02;13.30;99.90
19224;DHT22;9746;47.180;9.776;2023-10-19T08:39:32;13.40;99.90
19224;DHT22;9746;47.180;9.776;2023-10-19T08:42:19;13.50;99.90
19224;DHT22;9746;47.180;9.776;2023-10-19T08:44:48;13.60;99.90
19224;DHT22;9746;47.180;9.776;2023-10-19T08:47:16;13.80;99.90
19224;DHT22;9746;47.180;9.776;2023-10-19T08:49:45;14.00;99.90
19224;DHT22;9746;47.180;9.776;2023-10-19T08:52:29;14.10;99.90
19224;DHT22;9746;47.180;9.776;2023-10-19T08:54:58;14.30;99.90
19224;DHT22;9746;47.180;9.776;2023-10-19T08:57:26;14.40;99.90
19224;DHT22;9746;47.180;9.776;2023-10-19T09:00:00;14.60;99.90
19224;DHT22;9746;47.180;9.776;2023-10-19T09:02:34;14.80;99.90
19224;DHT22;9746;47.180;9.776;2023-10-19T09:05:07;14.90;99.90
19224;DHT22;9746;47.180;9.776;2023-10-19T09:07:48;15.10;99.90
19224;DHT22;9746;47.180;9.776;2023-10-19T09:10:20;15.20;99.90
19224;DHT22;9746;47.180;9.776;2023-10-19T09:13:05;15.30;99.90
19224;DHT22;9746;47.180;9.776;2023-10-19T09:15:35;15.50;99.90
19224;DHT22;9746;47.180;9.776;2023-10-19T09:18:16;15.60;99.90
19224;DHT22;9746;47.180;9.776;2023-10-19T09:20:50;15.70;99.90
19224;DHT22;9746;47.180;9.776;2023-10-19T09:23:23;15.80;99.90
19224;DHT22;9746;47.180;9.776;2023-10-19T09:25:51;15.90;99.90
19224;DHT22;9746;47.180;9.776;2023-10-19T09:28:34;16.00;99.90
19224;DHT22;9746;47.180;9.776;2023-10-19T09:31:06;16.00;99.90
19224;DHT22;9746;47.180;9.776;2023-10-19T09:33:40;16.00;99.90
19224;DHT22;9746;47.180;9.776;2023-10-19T09:36:12;16.20;99.90
19224;DHT22;9746;47.180;9.776;2023-10-19T09:38:47;16.30;99.90
19224;DHT22;9746;47.180;9.776;2023-10-19T09:41:18;16.40;99.90
19224;DHT22;9746;47.180;9.776;2023-10-19T09:44:15;16.40;99.90
19224;DHT22;9746;47.180;9.776;2023-10-19T09:46:46;16.40;99.90
19224;DHT22;9746;47.180;9.776;2023-10-19T09:49:13;16.50;99.90
19224;DHT22;9746;47.180;9.776;2023-10-19T09:51:42;16.50;99.90
19224;DHT22;9746;47.180;9.776;2023-10-19T09:54:20;16.40;99.90
19224;DHT22;9746;47.180;9.776;2023-10-19T09:56:55;16.40;99.90
19224;DHT22;9746;47.180;9.776;2023-10-19T09:59:29;16.20;99.90
19224;DHT22;9746;47.180;9.776;2023-10-19T10:02:08;16.30;99.90
19224;DHT22;9746;47.180;9.776;2023-10-19T10:04:39;16.40;99.90
19224;DHT22;9746;47.180;9.776;2023-10-19T10:07:09;16.40;99.90
19224;DHT22;9746;47.180;9.776;2023-10-19T10:09:38;16.50;99.90
19224;DHT22;9746;47.180;9.776;2023-10-19T10:12:28;16.60;99.90
19224;DHT22;9746;47.180;9.776;2023-10-19T10:14:57;16.60;99.90
19224;DHT22;9746;47.180;9.776;2023-10-19T10:17:41;16.60;99.90
19224;DHT22;9746;47.180;9.776;2023-10-19T10:20:31;16.60;99.90
19224;DHT22;9746;47.180;9.776;2023-10-19T10:23:20;16.70;99.90
19224;DHT22;9746;47.180;9.776;2023-10-19T10:25:53;16.80;99.90
19224;DHT22;9746;47.180;9.776;2023-10-19T10:28:22;17.00;99.90
19224;DHT22;9746;47.180;9.776;2023-10-19T10:31:11;17.00;99.90
19224;DHT22;9746;47.180;9.776;2023-10-19T10:33:50;17.10;99.90
19224;DHT22;9746;47.180;9.776;2023-10-19T10:36:20;17.10;99.90
19224;DHT22;9746;47.180;9.776;2023-10-19T10:39:02;17.10;99.90
19224;DHT22;9746;47.180;9.776;2023-10-19T10:41:32;17.20;99.90
19224;DHT22;9746;47.180;9.776;2023-10-19T10:44:01;17.10;99.90
19224;DHT22;9746;47.180;9.776;2023-10-19T10:46:29;17.10;99.90
19224;DHT22;9746;47.180;9.776;2023-10-19T10:49:08;17.20;99.90
19224;DHT22;9746;47.180;9.776;2023-10-19T10:51:40;17.20;99.90
19224;DHT22;9746;47.180;9.776;2023-10-19T10:54:34;17.30;99.90
19224;DHT22;9746;47.180;9.776;2023-10-19T10:57:04;17.20;99.90
19224;DHT22;9746;47.180;9.776;2023-10-19T11:00:02;17.20;99.90
19224;DHT22;9746;47.180;9.776;2023-10-19T11:02:40;17.30;99.90
19224;DHT22;9746;47.180;9.776;2023-10-19T11:05:08;17.30;99.90
19224;DHT22;9746;47.180;9.776;2023-10-19T11:07:40;17.40;99.90
19224;DHT22;9746;47.180;9.776;2023-10-19T11:10:09;17.50;99.90
19224;DHT22;9746;47.180;9.776;2023-10-19T11:12:48;17.60;99.90
19224;DHT22;9746;47.180;9.776;2023-10-19T11:15:21;17.70;99.90
19224;DHT22;9746;47.180;9.776;2023-10-19T11:18:01;17.70;99.90
19224;DHT22;9746;47.180;9.776;2023-10-19T11:20:29;17.80;99.90
19224;DHT22;9746;47.180;9.776;2023-10-19T11:23:10;17.80;99.90
19224;DHT22;9746;47.180;9.776;2023-10-19T11:25:43;17.80;99.90
19224;DHT22;9746;47.180;9.776;2023-10-19T11:28:17;18.00;99.90
19224;DHT22;9746;47.180;9.776;2023-10-19T11:30:45;18.00;99.90
19224;DHT22;9746;47.180;9.776;2023-10-19T11:33:33;18.00;99.90
19224;DHT22;9746;47.180;9.776;2023-10-19T11:36:01;18.00;99.90
19224;DHT22;9746;47.180;9.776;2023-10-19T11:38:36;17.90;99.90
19224;DHT22;9746;47.180;9.776;2023-10-19T11:41:06;17.80;99.90
19224;DHT22;9746;47.180;9.776;2023-10-19T11:43:41;17.70;99.90
19224;DHT22;9746;47.180;9.776;2023-10-19T11:46:10;17.50;99.90
19224;DHT22;9746;47.180;9.776;2023-10-19T11:48:44;17.50;99.90
19224;DHT22;9746;47.180;9.776;2023-10-19T11:51:13;17.40;99.90
19224;DHT22;9746;47.180;9.776;2023-10-19T11:53:41;17.30;99.90
19224;DHT22;9746;47.180;9.776;2023-10-19T11:56:12;17.20;99.90
19224;DHT22;9746;47.180;9.776;2023-10-19T11:58:43;17.10;99.90
19224;DHT22;9746;47.180;9.776;2023-10-19T12:01:13;17.00;99.90
19224;DHT22;9746;47.180;9.776;2023-10-19T12:03:51;17.00;99.90
19224;DHT22;9746;47.180;9.776;2023-10-19T12:06:18;16.90;99.90
19224;DHT22;9746;47.180;9.776;2023-10-19T12:08:48;16.80;99.90
19224;DHT22;9746;47.180;9.776;2023-10-19T12:11:17;16.80;99.90
19224;DHT22;9746;47.180;9.776;2023-10-19T12:16:41;16.60;99.90
19224;DHT22;9746;47.180;9.776;2023-10-19T12:19:20;16.50;99.90
19224;DHT22;9746;47.180;9.776;2023-10-19T12:21:48;16.50;99.90
19224;DHT22;9746;47.180;9.776;2023-10-19T12:24:16;16.40;99.90
19224;DHT22;9746;47.180;9.776;2023-10-19T12:26:45;16.30;99.90
19224;DHT22;9746;47.180;9.776;2023-10-19T12:29:13;16.20;99.90
19224;DHT22;9746;47.180;9.776;2023-10-19T12:31:43;16.20;99.90
19224;DHT22;9746;47.180;9.776;2023-10-19T12:34:11;16.10;99.90
19224;DHT22;9746;47.180;9.776;2023-10-19T12:36:39;16.10;99.90
19224;DHT22;9746;47.180;9.776;2023-10-19T12:39:19;16.10;99.90
19224;DHT22;9746;47.180;9.776;2023-10-19T12:42:02;16.10;99.90
19224;DHT22;9746;47.180;9.776;2023-10-19T12:47:36;16.10;99.90
19224;DHT22;9746;47.180;9.776;2023-10-19T12:50:05;16.10;99.90
19224;DHT22;9746;47.180;9.776;2023-10-19T12:52:33;16.10;99.90
19224;DHT22;9746;47.180;9.776;2023-10-19T12:55:04;16.10;99.90
19224;DHT22;9746;47.180;9.776;2023-10-19T12:57:35;16.10;99.90
19224;DHT22;9746;47.180;9.776;2023-10-19T13:00:03;16.20;99.90
19224;DHT22;9746;47.180;9.776;2023-10-19T13:02:50;16.20;99.90
19224;DHT22;9746;47.180;9.776;2023-10-19T13:05:27;16.30;99.90
19224;DHT22;9746;47.180;9.776;2023-10-19T13:07:54;16.20;99.90
19224;DHT22;9746;47.180;9.776;2023-10-19T13:10:44;16.20;99.90
19224;DHT22;9746;47.180;9.776;2023-10-19T13:13:15;16.20;99.90
19224;DHT22;9746;47.180;9.776;2023-10-19T13:15:44;16.10;99.90
19224;DHT22;9746;47.180;9.776;2023-10-19T13:18:14;16.10;99.90
19224;DHT22;9746;47.180;9.776;2023-10-19T13:20:46;16.10;99.90
19224;DHT22;9746;47.180;9.776;2023-10-19T13:23:14;16.10;99.90
19224;DHT22;9746;47.180;9.776;2023-10-19T13:25:47;16.10;99.90
19224;DHT22;9746;47.180;9.776;2023-10-19T13:28:21;16.10;99.90
19224;DHT22;9746;47.180;9.776;2023-10-19T13:30:50;16.20;99.90
19224;DHT22;9746;47.180;9.776;2023-10-19T13:33:19;16.20;99.90
19224;DHT22;9746;47.180;9.776;2023-10-19T13:35:48;16.30;99.90
19224;DHT22;9746;47.180;9.776;2023-10-19T13:38:17;16.40;99.90
19224;DHT22;9746;47.180;9.776;2023-10-19T13:40:46;16.40;99.90
19224;DHT22;9746;47.180;9.776;2023-10-19T13:43:17;16.50;99.90
19224;DHT22;9746;47.180;9.776;2023-10-19T13:45:47;16.70;99.90
19224;DHT22;9746;47.180;9.776;2023-10-19T13:48:15;16.80;99.90
19224;DHT22;9746;47.180;9.776;2023-10-19T13:50:45;17.00;99.90
19224;DHT22;9746;47.180;9.776;2023-10-19T13:53:14;17.00;99.90
19224;DHT22;9746;47.180;9.776;2023-10-19T13:55:48;17.10;99.90
19224;DHT22;9746;47.180;9.776;2023-10-19T13:58:16;17.10;99.90
19224;DHT22;9746;47.180;9.776;2023-10-19T14:00:50;17.20;99.90
19224;DHT22;9746;47.180;9.776;2023-10-19T14:03:17;17.30;99.90
19224;DHT22;9746;47.180;9.776;2023-10-19T14:06:05;17.40;99.90
19224;DHT22;9746;47.180;9.776;2023-10-19T14:11:38;17.80;99.90
19224;DHT22;9746;47.180;9.776;2023-10-19T14:14:09;18.00;99.90
19224;DHT22;9746;47.180;9.776;2023-10-19T14:16:38;18.20;99.90
19224;DHT22;9746;47.180;9.776;2023-10-19T14:19:15;18.60;99.90
19224;DHT22;9746;47.180;9.776;2023-10-19T14:21:43;19.00;99.90
19224;DHT22;9746;47.180;9.776;2023-10-19T14:27:35;21.30;99.90
19224;DHT22;9746;47.180;9.776;2023-10-19T14:30:04;22.50;99.90
19224;DHT22;9746;47.180;9.776;2023-10-19T14:32:33;23.40;99.90
19224;DHT22;9746;47.180;9.776;2023-10-19T14:38:09;24.20;99.90
19224;DHT22;9746;47.180;9.776;2023-10-19T14:40:39;23.90;99.90
19224;DHT22;9746;47.180;9.776;2023-10-19T14:43:10;23.40;99.90
19224;DHT22;9746;47.180;9.776;2023-10-19T14:46:09;22.80;99.90
19224;DHT22;9746;47.180;9.776;2023-10-19T14:48:39;21.90;99.90
19224;DHT22;9746;47.180;9.776;2023-10-19T14:51:08;21.60;99.90
19224;DHT22;9746;47.180;9.776;2023-10-19T14:53:35;21.20;99.90
19224;DHT22;9746;47.180;9.776;2023-10-19T14:56:05;20.90;99.90
19224;DHT22;9746;47.180;9.776;2023-10-19T14:58:33;20.60;99.90
19224;DHT22;9746;47.180;9.776;2023-10-19T15:01:10;20.40;99.90
19224;DHT22;9746;47.180;9.776;2023-10-19T15:03:43;20.30;99.90
19224;DHT22;9746;47.180;9.776;2023-10-19T15:06:13;20.00;99.90
19224;DHT22;9746;47.180;9.776;2023-10-19T15:08:44;19.70;99.90
19224;DHT22;9746;47.180;9.776;2023-10-19T15:11:17;19.40;99.90
19224;DHT22;9746;47.180;9.776;2023-10-19T15:13:46;19.20;99.90
19224;DHT22;9746;47.180;9.776;2023-10-19T15:16:36;19.10;99.90
19224;DHT22;9746;47.180;9.776;2023-10-19T15:19:06;19.00;99.90
19224;DHT22;9746;47.180;9.776;2023-10-19T15:21:34;18.90;99.90
19224;DHT22;9746;47.180;9.776;2023-10-19T15:24:02;18.80;99.90
19224;DHT22;9746;47.180;9.776;2023-10-19T15:26:31;18.70;99.90
19224;DHT22;9746;47.180;9.776;2023-10-19T15:28:58;18.70;99.90
19224;DHT22;9746;47.180;9.776;2023-10-19T15:31:37;18.60;99.90
19224;DHT22;9746;47.180;9.776;2023-10-19T15:34:06;18.30;99.90
19224;DHT22;9746;47.180;9.776;2023-10-19T15:36:34;18.10;99.90
19224;DHT22;9746;47.180;9.776;2023-10-19T15:39:03;17.90;99.90
19224;DHT22;9746;47.180;9.776;2023-10-19T15:41:31;17.80;99.90
19224;DHT22;9746;47.180;9.776;2023-10-19T15:43:58;17.70;99.90
19224;DHT22;9746;47.180;9.776;2023-10-19T15:46:30;17.70;99.90
19224;DHT22;9746;47.180;9.776;2023-10-19T15:49:00;17.60;99.90
19224;DHT22;9746;47.180;9.776;2023-10-19T15:51:35;17.50;99.90
19224;DHT22;9746;47.180;9.776;2023-10-19T15:54:03;17.40;99.90
19224;DHT22;9746;47.180;9.776;2023-10-19T15:56:48;17.30;99.90
19224;DHT22;9746;47.180;9.776;2023-10-19T15:59:15;17.30;99.90
19224;DHT22;9746;47.180;9.776;2023-10-19T16:01:42;17.10;99.90
19224;DHT22;9746;47.180;9.776;2023-10-19T16:04:10;17.00;99.90
19224;DHT22;9746;47.180;9.776;2023-10-19T16:06:46;16.90;99.90
19224;DHT22;9746;47.180;9.776;2023-10-19T16:09:13;16.90;99.90
19224;DHT22;9746;47.180;9.776;2023-10-19T16:11:55;16.80;99.90
19224;DHT22;9746;47.180;9.776;2023-10-19T16:14:53;16.70;99.90
19224;DHT22;9746;47.180;9.776;2023-10-19T16:17:22;16.60;99.90
19224;DHT22;9746;47.180;9.776;2023-10-19T16:19:57;16.50;99.90
19224;DHT22;9746;47.180;9.776;2023-10-19T16:22:26;16.30;99.90
19224;DHT22;9746;47.180;9.776;2023-10-19T16:25:04;16.20;99.90
19224;DHT22;9746;47.180;9.776;2023-10-19T16:27:32;16.20;99.90
19224;DHT22;9746;47.180;9.776;2023-10-19T16:30:08;16.10;99.90
19224;DHT22;9746;47.180;9.776;2023-10-19T16:32:38;16.10;99.90
19224;DHT22;9746;47.180;9.776;2023-10-19T16:35:06;16.00;99.90
19224;DHT22;9746;47.180;9.776;2023-10-19T16:37:36;15.80;99.90
19224;DHT22;9746;47.180;9.776;2023-10-19T16:40:06;15.80;99.90
19224;DHT22;9746;47.180;9.776;2023-10-19T16:42:34;15.60;99.90
19224;DHT22;9746;47.180;9.776;2023-10-19T16:45:04;15.60;99.90
19224;DHT22;9746;47.180;9.776;2023-10-19T16:47:32;15.30;99.90
19224;DHT22;9746;47.180;9.776;2023-10-19T16:50:02;15.30;99.90
19224;DHT22;9746;47.180;9.776;2023-10-19T16:52:34;15.20;99.90
19224;DHT22;9746;47.180;9.776;2023-10-19T16:55:03;15.20;99.90
19224;DHT22;9746;47.180;9.776;2023-10-19T16:57:31;15.10;99.90
19224;DHT22;9746;47.180;9.776;2023-10-19T17:00:11;15.10;99.90
19224;DHT22;9746;47.180;9.776;2023-10-19T17:02:40;15.00;99.90
19224;DHT22;9746;47.180;9.776;2023-10-19T17:05:14;15.00;99.90
19224;DHT22;9746;47.180;9.776;2023-10-19T17:07:43;14.90;99.90
19224;DHT22;9746;47.180;9.776;2023-10-19T17:10:14;14.90;99.90
19224;DHT22;9746;47.180;9.776;2023-10-19T17:12:42;14.80;99.90
19224;DHT22;9746;47.180;9.776;2023-10-19T17:15:15;14.80;99.90
19224;DHT22;9746;47.180;9.776;2023-10-19T17:17:43;14.80;99.90
19224;DHT22;9746;47.180;9.776;2023-10-19T17:20:13;14.70;99.90
19224;DHT22;9746;47.180;9.776;2023-10-19T17:22:44;14.70;99.90
19224;DHT22;9746;47.180;9.776;2023-10-19T17:25:14;14.70;99.90
19224;DHT22;9746;47.180;9.776;2023-10-19T17:27:42;14.70;99.90
19224;DHT22;9746;47.180;9.776;2023-10-19T17:30:16;14.70;99.90
19224;DHT22;9746;47.180;9.776;2023-10-19T17:32:44;14.50;99.90
19224;DHT22;9746;47.180;9.776;2023-10-19T17:35:13;14.40;99.90
19224;DHT22;9746;47.180;9.776;2023-10-19T17:37:41;14.40;99.90
19224;DHT22;9746;47.180;9.776;2023-10-19T17:40:08;14.40;99.90
19224;DHT22;9746;47.180;9.776;2023-10-19T17:42:38;14.40;99.90
19224;DHT22;9746;47.180;9.776;2023-10-19T17:45:06;14.30;99.90
19224;DHT22;9746;47.180;9.776;2023-10-19T17:47:34;14.30;99.90
19224;DHT22;9746;47.180;9.776;2023-10-19T17:50:03;14.40;99.90
19224;DHT22;9746;47.180;9.776;2023-10-19T17:52:32;14.40;99.90
19224;DHT22;9746;47.180;9.776;2023-10-19T17:55:03;14.40;99.90
19224;DHT22;9746;47.180;9.776;2023-10-19T17:57:32;14.50;99.90
19224;DHT22;9746;47.180;9.776;2023-10-19T18:00:01;14.50;99.90
19224;DHT22;9746;47.180;9.776;2023-10-19T18:02:29;14.50;99.90
19224;DHT22;9746;47.180;9.776;2023-10-19T18:04:57;14.50;99.90
19224;DHT22;9746;47.180;9.776;2023-10-19T18:07:27;14.50;99.90
19224;DHT22;9746;47.180;9.776;2023-10-19T18:09:55;14.50;99.90
19224;DHT22;9746;47.180;9.776;2023-10-19T18:12:26;14.40;99.90
19224;DHT22;9746;47.180;9.776;2023-10-19T18:14:58;14.40;99.90
19224;DHT22;9746;47.180;9.776;2023-10-19T18:17:28;14.40;99.90
19224;DHT22;9746;47.180;9.776;2023-10-19T18:19:57;14.40;99.90
19224;DHT22;9746;47.180;9.776;2023-10-19T18:22:26;14.50;99.90
19224;DHT22;9746;47.180;9.776;2023-10-19T18:24:59;14.40;99.90
19224;DHT22;9746;47.180;9.776;2023-10-19T18:27:35;14.50;99.90
19224;DHT22;9746;47.180;9.776;2023-10-19T18:30:04;14.40;99.90
19224;DHT22;9746;47.180;9.776;2023-10-19T18:32:39;14.50;99.90
19224;DHT22;9746;47.180;9.776;2023-10-19T18:35:09;14.50;99.90
19224;DHT22;9746;47.180;9.776;2023-10-19T18:37:47;14.60;99.90
19224;DHT22;9746;47.180;9.776;2023-10-19T18:40:18;14.80;99.90
19224;DHT22;9746;47.180;9.776;2023-10-19T18:42:49;14.90;99.90
19224;DHT22;9746;47.180;9.776;2023-10-19T18:45:25;14.90;99.90
19224;DHT22;9746;47.180;9.776;2023-10-19T18:47:57;14.90;99.90
19224;DHT22;9746;47.180;9.776;2023-10-19T18:50:25;14.80;99.90
19224;DHT22;9746;47.180;9.776;2023-10-19T18:52:53;14.80;99.90
19224;DHT22;9746;47.180;9.776;2023-10-19T18:55:21;14.70;99.90
19224;DHT22;9746;47.180;9.776;2023-10-19T18:57:52;14.70;99.90
19224;DHT22;9746;47.180;9.776;2023-10-19T19:00:23;14.60;99.90
19224;DHT22;9746;47.180;9.776;2023-10-19T19:03:01;14.60;99.90
19224;DHT22;9746;47.180;9.776;2023-10-19T19:05:28;14.50;99.90
19224;DHT22;9746;47.180;9.776;2023-10-19T19:07:57;14.50;99.90
19224;DHT22;9746;47.180;9.776;2023-10-19T19:10:24;14.60;99.90
19224;DHT22;9746;47.180;9.776;2023-10-19T19:12:58;14.50;99.90
19224;DHT22;9746;47.180;9.776;2023-10-19T19:15:26;14.40;99.90
19224;DHT22;9746;47.180;9.776;2023-10-19T19:17:53;14.40;99.90
19224;DHT22;9746;47.180;9.776;2023-10-19T19:20:22;14.40;99.90
19224;DHT22;9746;47.180;9.776;2023-10-19T19:22:50;14.40;99.90
19224;DHT22;9746;47.180;9.776;2023-10-19T19:25:17;14.30;99.90
19224;DHT22;9746;47.180;9.776;2023-10-19T19:28:04;14.10;99.90
19224;DHT22;9746;47.180;9.776;2023-10-19T19:30:31;14.00;99.90
19224;DHT22;9746;47.180;9.776;2023-10-19T19:33:04;14.10;99.90
19224;DHT22;9746;47.180;9.776;2023-10-19T19:35:33;14.00;99.90
19224;DHT22;9746;47.180;9.776;2023-10-19T19:38:04;13.80;99.90
19224;DHT22;9746;47.180;9.776;2023-10-19T19:40:33;13.80;99.90
19224;DHT22;9746;47.180;9.776;2023-10-19T19:43:14;13.90;99.90
19224;DHT22;9746;47.180;9.776;2023-10-19T19:45:41;13.90;99.90
19224;DHT22;9746;47.180;9.776;2023-10-19T19:48:09;13.90;99.90
19224;DHT22;9746;47.180;9.776;2023-10-19T19:50:39;13.90;99.90
19224;DHT22;9746;47.180;9.776;2023-10-19T19:53:08;13.90;99.90
19224;DHT22;9746;47.180;9.776;2023-10-19T19:55:36;14.00;99.90
19224;DHT22;9746;47.180;9.776;2023-10-19T19:58:04;14.10;99.90
19224;DHT22;9746;47.180;9.776;2023-10-19T20:00:31;14.00;99.90
19224;DHT22;9746;47.180;9.776;2023-10-19T20:03:01;14.10;99.90
19224;DHT22;9746;47.180;9.776;2023-10-19T20:05:30;14.10;99.90
19224;DHT22;9746;47.180;9.776;2023-10-19T20:08:01;14.00;99.90
19224;DHT22;9746;47.180;9.776;2023-10-19T20:10:35;13.90;99.90
19224;DHT22;9746;47.180;9.776;2023-10-19T20:13:06;13.90;99.90
19224;DHT22;9746;47.180;9.776;2023-10-19T20:15:34;13.80;99.90
19224;DHT22;9746;47.180;9.776;2023-10-19T20:18:02;13.80;99.90
19224;DHT22;9746;47.180;9.776;2023-10-19T20:20:30;13.80;99.90
19224;DHT22;9746;47.180;9.776;2023-10-19T20:23:00;13.80;99.90
19224;DHT22;9746;47.180;9.776;2023-10-19T20:25:28;13.80;99.90
19224;DHT22;9746;47.180;9.776;2023-10-19T20:28:03;13.80;99.90
19224;DHT22;9746;47.180;9.776;2023-10-19T20:30:32;13.80;99.90
19224;DHT22;9746;47.180;9.776;2023-10-19T20:33:02;13.80;99.90
19224;DHT22;9746;47.180;9.776;2023-10-19T20:35:33;13.80;99.90
19224;DHT22;9746;47.180;9.776;2023-10-19T20:38:20;13.80;99.90
19224;DHT22;9746;47.180;9.776;2023-10-19T20:40:47;13.80;99.90
19224;DHT22;9746;47.180;9.776;2023-10-19T20:43:20;13.80;99.90
19224;DHT22;9746;47.180;9.776;2023-10-19T20:45:47;13.80;99.90
19224;DHT22;9746;47.180;9.776;2023-10-19T20:48:16;13.80;99.90
19224;DHT22;9746;47.180;9.776;2023-10-19T20:50:43;13.80;99.90
19224;DHT22;9746;47.180;9.776;2023-10-19T20:53:22;13.70;99.90
19224;DHT22;9746;47.180;9.776;2023-10-19T20:55:49;13.70;99.90
19224;DHT22;9746;47.180;9.776;2023-10-19T20:58:31;13.60;99.90
19224;DHT22;9746;47.180;9.776;2023-10-19T21:01:04;13.50;99.90
19224;DHT22;9746;47.180;9.776;2023-10-19T21:03:33;13.60;99.90
19224;DHT22;9746;47.180;9.776;2023-10-19T21:06:09;13.60;99.90
19224;DHT22;9746;47.180;9.776;2023-10-19T21:08:38;13.50;99.90
19224;DHT22;9746;47.180;9.776;2023-10-19T21:11:13;13.40;99.90
19224;DHT22;9746;47.180;9.776;2023-10-19T21:13:42;13.50;99.90
19224;DHT22;9746;47.180;9.776;2023-10-19T21:16:10;13.40;99.90
19224;DHT22;9746;47.180;9.776;2023-10-19T21:18:38;13.40;99.90
19224;DHT22;9746;47.180;9.776;2023-10-19T21:21:08;13.40;99.90
19224;DHT22;9746;47.180;9.776;2023-10-19T21:23:49;13.40;99.90
19224;DHT22;9746;47.180;9.776;2023-10-19T21:26:19;13.40;99.90
19224;DHT22;9746;47.180;9.776;2023-10-19T21:28:55;13.40;99.90
19224;DHT22;9746;47.180;9.776;2023-10-19T21:31:24;13.30;99.90
19224;DHT22;9746;47.180;9.776;2023-10-19T21:33:52;13.30;99.90
19224;DHT22;9746;47.180;9.776;2023-10-19T21:36:19;13.30;99.90
19224;DHT22;9746;47.180;9.776;2023-10-19T21:38:46;13.20;99.90
19224;DHT22;9746;47.180;9.776;2023-10-19T21:41:18;13.20;99.90
19224;DHT22;9746;47.180;9.776;2023-10-19T21:43:55;13.20;99.90
19224;DHT22;9746;47.180;9.776;2023-10-19T21:46:25;13.30;99.90
19224;DHT22;9746;47.180;9.776;2023-10-19T21:48:53;13.20;99.90
19224;DHT22;9746;47.180;9.776;2023-10-19T21:51:20;13.30;99.90
19224;DHT22;9746;47.180;9.776;2023-10-19T21:53:57;13.30;99.90
19224;DHT22;9746;47.180;9.776;2023-10-19T21:56:25;13.40;99.90
